sensor_id;sensor_type;location;lat;lon;timestamp;pressure;altitude;pressure_sealevel;temperature;humidity
55301;BME280;58302;51.446;-2.000;2023-06-14T00:02:11;100709.72;;;13.92;100.00
55301;BME280;58302;51.446;-2.000;2023-06-14T00:04:37;100706.50;;;13.80;100.00
55301;BME280;58302;51.446;-2.000;2023-06-14T00:07:05;100712.00;;;13.69;100.00
55301;BME280;58302;51.446;-2.000;2023-06-14T00:09:34;100710.66;;;13.62;100.00
55301;BME280;58302;51.446;-2.000;2023-06-14T00:12:01;100715.28;;;13.61;100.00
55301;BME280;58302;51.446;-2.000;2023-06-14T00:14:27;100712.56;;;13.61;100.00
55301;BME280;58302;51.446;-2.000;2023-06-14T00:16:53;100712.31;;;13.58;100.00
55301;BME280;58302;51.446;-2.000;2023-06-14T00:19:25;100722.16;;;13.59;100.00
55301;BME280;58302;51.446;-2.000;2023-06-14T00:21:51;100718.03;;;13.56;100.00
55301;BME280;58302;51.446;-2.000;2023-06-14T00:24:19;100724.88;;;13.64;100.00
55301;BME280;58302;51.446;-2.000;2023-06-14T00:26:45;100727.03;;;13.67;100.00
55301;BME280;58302;51.446;-2.000;2023-06-14T00:29:11;100728.69;;;13.63;100.00
55301;BME280;58302;51.446;-2.000;2023-06-14T00:31:37;100735.81;;;13.54;100.00
55301;BME280;58302;51.446;-2.000;2023-06-14T00:34:03;100730.91;;;13.40;100.00
55301;BME280;58302;51.446;-2.000;2023-06-14T00:36:29;100733.13;;;13.28;100.00
55301;BME280;58302;51.446;-2.000;2023-06-14T00:38:55;100726.31;;;13.21;100.00
55301;BME280;58302;51.446;-2.000;2023-06-14T00:41:21;100728.53;;;13.13;100.00
55301;BME280;58302;51.446;-2.000;2023-06-14T00:43:47;100732.59;;;13.11;100.00
55301;BME280;58302;51.446;-2.000;2023-06-14T00:46:13;100731.25;;;13.13;100.00
55301;BME280;58302;51.446;-2.000;2023-06-14T00:48:39;100733.69;;;13.05;100.00
55301;BME280;58302;51.446;-2.000;2023-06-14T00:51:05;100733.16;;;12.92;100.00
55301;BME280;58302;51.446;-2.000;2023-06-14T00:53:32;100740.53;;;12.77;100.00
55301;BME280;58302;51.446;-2.000;2023-06-14T00:56:01;100733.72;;;12.64;100.00
55301;BME280;58302;51.446;-2.000;2023-06-14T00:58:27;100741.06;;;12.53;100.00
55301;BME280;58302;51.446;-2.000;2023-06-14T01:00:54;100739.69;;;12.46;100.00
55301;BME280;58302;51.446;-2.000;2023-06-14T01:03:20;100741.59;;;12.40;100.00
55301;BME280;58302;51.446;-2.000;2023-06-14T01:05:54;100742.13;;;12.32;100.00
55301;BME280;58302;51.446;-2.000;2023-06-14T01:08:45;100736.94;;;12.20;100.00
55301;BME280;58302;51.446;-2.000;2023-06-14T01:11:21;100730.06;;;12.07;100.00
55301;BME280;58302;51.446;-2.000;2023-06-14T01:13:48;100735.22;;;11.99;100.00
55301;BME280;58302;51.446;-2.000;2023-06-14T01:16:16;100742.59;;;11.98;100.00
55301;BME280;58302;51.446;-2.000;2023-06-14T01:18:43;100737.94;;;11.94;100.00
55301;BME280;58302;51.446;-2.000;2023-06-14T01:21:23;100739.56;;;11.90;100.00
55301;BME280;58302;51.446;-2.000;2023-06-14T01:23:50;100744.69;;;11.86;100.00
55301;BME280;58302;51.446;-2.000;2023-06-14T01:26:21;100743.63;;;11.92;100.00
55301;BME280;58302;51.446;-2.000;2023-06-14T01:28:49;100748.09;;;12.29;100.00
55301;BME280;58302;51.446;-2.000;2023-06-14T01:31:20;100745.97;;;12.51;100.00
55301;BME280;58302;51.446;-2.000;2023-06-14T01:33:51;100749.25;;;12.84;100.00
55301;BME280;58302;51.446;-2.000;2023-06-14T01:36:18;100746.81;;;12.87;100.00
55301;BME280;58302;51.446;-2.000;2023-06-14T01:38:47;100749.53;;;12.87;100.00
55301;BME280;58302;51.446;-2.000;2023-06-14T01:41:16;100744.38;;;12.86;100.00
55301;BME280;58302;51.446;-2.000;2023-06-14T01:43:45;100748.19;;;12.75;100.00
55301;BME280;58302;51.446;-2.000;2023-06-14T01:46:14;100744.88;;;12.68;100.00
55301;BME280;58302;51.446;-2.000;2023-06-14T01:48:41;100748.41;;;12.58;100.00
55301;BME280;58302;51.446;-2.000;2023-06-14T01:51:07;100753.59;;;12.49;100.00
55301;BME280;58302;51.446;-2.000;2023-06-14T01:53:33;100757.44;;;12.53;100.00
55301;BME280;58302;51.446;-2.000;2023-06-14T01:55:59;100756.06;;;12.61;100.00
55301;BME280;58302;51.446;-2.000;2023-06-14T01:58:25;100754.97;;;12.72;100.00
55301;BME280;58302;51.446;-2.000;2023-06-14T02:00:52;100750.31;;;12.57;100.00
55301;BME280;58302;51.446;-2.000;2023-06-14T02:03:21;100764.78;;;12.58;100.00
55301;BME280;58302;51.446;-2.000;2023-06-14T02:05:47;100759.06;;;12.49;100.00
55301;BME280;58302;51.446;-2.000;2023-06-14T02:08:13;100748.16;;;12.44;100.00
55301;BME280;58302;51.446;-2.000;2023-06-14T02:10:39;100753.88;;;12.43;100.00
55301;BME280;58302;51.446;-2.000;2023-06-14T02:13:05;100747.84;;;12.25;100.00
55301;BME280;58302;51.446;-2.000;2023-06-14T02:15:31;100754.91;;;12.16;100.00
55301;BME280;58302;51.446;-2.000;2023-06-14T02:18:03;100747.22;;;12.03;100.00
55301;BME280;58302;51.446;-2.000;2023-06-14T02:20:29;100755.97;;;12.10;100.00
55301;BME280;58302;51.446;-2.000;2023-06-14T02:22:56;100746.69;;;12.06;100.00
55301;BME280;58302;51.446;-2.000;2023-06-14T02:25:24;100748.59;;;12.05;100.00
55301;BME280;58302;51.446;-2.000;2023-06-14T02:27:49;100748.56;;;11.95;100.00
55301;BME280;58302;51.446;-2.000;2023-06-14T02:30:15;100744.97;;;11.84;100.00
55301;BME280;58302;51.446;-2.000;2023-06-14T02:32:42;100750.03;;;11.66;100.00
55301;BME280;58302;51.446;-2.000;2023-06-14T02:35:08;100743.41;;;11.46;100.00
55301;BME280;58302;51.446;-2.000;2023-06-14T02:37:34;100744.44;;;11.35;100.00
55301;BME280;58302;51.446;-2.000;2023-06-14T02:40:01;100729.88;;;11.14;100.00
55301;BME280;58302;51.446;-2.000;2023-06-14T02:42:26;100733.56;;;10.98;100.00
55301;BME280;58302;51.446;-2.000;2023-06-14T02:44:52;100735.47;;;10.97;100.00
55301;BME280;58302;51.446;-2.000;2023-06-14T02:47:19;100741.81;;;11.08;100.00
55301;BME280;58302;51.446;-2.000;2023-06-14T02:49:45;100745.69;;;11.17;100.00
55301;BME280;58302;51.446;-2.000;2023-06-14T02:52:14;100749.50;;;11.16;100.00
55301;BME280;58302;51.446;-2.000;2023-06-14T02:54:41;100738.56;;;11.11;100.00
55301;BME280;58302;51.446;-2.000;2023-06-14T02:57:07;100739.03;;;11.03;100.00
55301;BME280;58302;51.446;-2.000;2023-06-14T02:59:34;100732.16;;;10.90;100.00
55301;BME280;58302;51.446;-2.000;2023-06-14T03:02:01;100744.13;;;10.89;100.00
55301;BME280;58302;51.446;-2.000;2023-06-14T03:04:26;100741.91;;;10.86;100.00
55301;BME280;58302;51.446;-2.000;2023-06-14T03:06:54;100733.16;;;10.79;100.00
55301;BME280;58302;51.446;-2.000;2023-06-14T03:09:21;100736.09;;;10.72;100.00
55301;BME280;58302;51.446;-2.000;2023-06-14T03:11:47;100741.53;;;10.72;100.00
55301;BME280;58302;51.446;-2.000;2023-06-14T03:14:13;100745.25;;;10.61;100.00
55301;BME280;58302;51.446;-2.000;2023-06-14T03:16:39;100739.94;;;10.44;100.00
55301;BME280;58302;51.446;-2.000;2023-06-14T03:19:06;100741.69;;;10.28;100.00
55301;BME280;58302;51.446;-2.000;2023-06-14T03:21:32;100747.09;;;10.07;100.00
55301;BME280;58302;51.446;-2.000;2023-06-14T03:24:00;100747.19;;;9.90;100.00
55301;BME280;58302;51.446;-2.000;2023-06-14T03:26:26;100747.56;;;9.76;100.00
55301;BME280;58302;51.446;-2.000;2023-06-14T03:28:53;100742.78;;;9.62;100.00
55301;BME280;58302;51.446;-2.000;2023-06-14T03:31:18;100754.94;;;9.59;100.00
55301;BME280;58302;51.446;-2.000;2023-06-14T03:33:44;100756.63;;;9.43;100.00
55301;BME280;58302;51.446;-2.000;2023-06-14T03:36:10;100762.22;;;9.37;100.00
55301;BME280;58302;51.446;-2.000;2023-06-14T03:38:36;100763.22;;;9.31;100.00
55301;BME280;58302;51.446;-2.000;2023-06-14T03:41:02;100760.84;;;9.17;100.00
55301;BME280;58302;51.446;-2.000;2023-06-14T03:43:28;100770.75;;;9.07;100.00
55301;BME280;58302;51.446;-2.000;2023-06-14T03:45:55;100773.41;;;8.90;100.00
55301;BME280;58302;51.446;-2.000;2023-06-14T03:48:22;100781.72;;;8.83;100.00
55301;BME280;58302;51.446;-2.000;2023-06-14T03:50:47;100782.63;;;8.72;100.00
55301;BME280;58302;51.446;-2.000;2023-06-14T03:53:13;100783.19;;;8.57;100.00
55301;BME280;58302;51.446;-2.000;2023-06-14T03:55:40;100790.63;;;8.50;100.00
55301;BME280;58302;51.446;-2.000;2023-06-14T03:58:07;100792.44;;;8.61;100.00
55301;BME280;58302;51.446;-2.000;2023-06-14T04:00:33;100788.84;;;8.73;100.00
55301;BME280;58302;51.446;-2.000;2023-06-14T04:02:59;100793.63;;;8.82;100.00
55301;BME280;58302;51.446;-2.000;2023-06-14T04:05:25;100788.03;;;8.72;100.00
55301;BME280;58302;51.446;-2.000;2023-06-14T04:07:54;100798.22;;;8.65;100.00
55301;BME280;58302;51.446;-2.000;2023-06-14T04:10:21;100794.59;;;8.59;100.00
55301;BME280;58302;51.446;-2.000;2023-06-14T04:12:47;100797.69;;;8.51;100.00
55301;BME280;58302;51.446;-2.000;2023-06-14T04:15:13;100792.75;;;8.48;100.00
55301;BME280;58302;51.446;-2.000;2023-06-14T04:17:39;100796.94;;;8.56;100.00
55301;BME280;58302;51.446;-2.000;2023-06-14T04:20:06;100790.00;;;8.60;100.00
55301;BME280;58302;51.446;-2.000;2023-06-14T04:22:34;100791.34;;;8.74;100.00
55301;BME280;58302;51.446;-2.000;2023-06-14T04:25:00;100789.69;;;8.90;100.00
55301;BME280;58302;51.446;-2.000;2023-06-14T04:27:27;100795.53;;;8.98;100.00
55301;BME280;58302;51.446;-2.000;2023-06-14T04:29:56;100794.16;;;9.13;100.00
55301;BME280;58302;51.446;-2.000;2023-06-14T04:32:24;100785.25;;;9.17;100.00
55301;BME280;58302;51.446;-2.000;2023-06-14T04:34:53;100796.16;;;9.22;100.00
55301;BME280;58302;51.446;-2.000;2023-06-14T04:37:23;100791.91;;;9.27;100.00
55301;BME280;58302;51.446;-2.000;2023-06-14T04:39:49;100793.13;;;9.36;100.00
55301;BME280;58302;51.446;-2.000;2023-06-14T04:42:16;100789.16;;;9.43;100.00
55301;BME280;58302;51.446;-2.000;2023-06-14T04:44:42;100798.19;;;9.49;100.00
55301;BME280;58302;51.446;-2.000;2023-06-14T04:47:12;100797.13;;;9.50;100.00
55301;BME280;58302;51.446;-2.000;2023-06-14T04:49:40;100801.81;;;9.55;100.00
55301;BME280;58302;51.446;-2.000;2023-06-14T04:52:07;100802.69;;;9.60;100.00
55301;BME280;58302;51.446;-2.000;2023-06-14T04:54:36;100801.75;;;9.71;100.00
55301;BME280;58302;51.446;-2.000;2023-06-14T04:57:08;100805.00;;;9.68;100.00
55301;BME280;58302;51.446;-2.000;2023-06-14T04:59:34;100807.25;;;9.76;100.00
55301;BME280;58302;51.446;-2.000;2023-06-14T05:02:01;100799.94;;;9.77;100.00
55301;BME280;58302;51.446;-2.000;2023-06-14T05:04:27;100804.06;;;9.80;100.00
55301;BME280;58302;51.446;-2.000;2023-06-14T05:06:54;100797.56;;;9.81;100.00
55301;BME280;58302;51.446;-2.000;2023-06-14T05:09:23;100797.09;;;9.89;100.00
55301;BME280;58302;51.446;-2.000;2023-06-14T05:11:49;100795.78;;;9.91;100.00
55301;BME280;58302;51.446;-2.000;2023-06-14T05:14:16;100790.69;;;9.95;100.00
55301;BME280;58302;51.446;-2.000;2023-06-14T05:16:43;100806.47;;;9.98;100.00
55301;BME280;58302;51.446;-2.000;2023-06-14T05:19:09;100806.47;;;9.98;100.00
55301;BME280;58302;51.446;-2.000;2023-06-14T05:21:36;100802.19;;;10.02;100.00
55301;BME280;58302;51.446;-2.000;2023-06-14T05:24:03;100813.41;;;10.11;100.00
55301;BME280;58302;51.446;-2.000;2023-06-14T05:26:29;100812.69;;;10.20;100.00
55301;BME280;58302;51.446;-2.000;2023-06-14T05:28:56;100797.81;;;10.23;100.00
55301;BME280;58302;51.446;-2.000;2023-06-14T05:31:23;100803.56;;;10.26;100.00
55301;BME280;58302;51.446;-2.000;2023-06-14T05:33:50;100798.78;;;10.34;100.00
55301;BME280;58302;51.446;-2.000;2023-06-14T05:36:16;100796.63;;;10.36;100.00
55301;BME280;58302;51.446;-2.000;2023-06-14T05:38:42;100799.38;;;10.41;100.00
55301;BME280;58302;51.446;-2.000;2023-06-14T05:41:08;100801.34;;;10.45;100.00
55301;BME280;58302;51.446;-2.000;2023-06-14T05:43:34;100802.28;;;10.56;100.00
55301;BME280;58302;51.446;-2.000;2023-06-14T05:46:00;100789.75;;;10.55;100.00
55301;BME280;58302;51.446;-2.000;2023-06-14T05:48:26;100780.00;;;10.59;100.00
55301;BME280;58302;51.446;-2.000;2023-06-14T05:50:52;100789.94;;;10.75;100.00
55301;BME280;58302;51.446;-2.000;2023-06-14T05:53:18;100785.38;;;10.81;100.00
55301;BME280;58302;51.446;-2.000;2023-06-14T05:55:44;100778.69;;;10.94;100.00
55301;BME280;58302;51.446;-2.000;2023-06-14T05:58:10;100790.22;;;11.06;100.00
55301;BME280;58302;51.446;-2.000;2023-06-14T06:00:36;100791.88;;;11.12;100.00
55301;BME280;58302;51.446;-2.000;2023-06-14T06:03:02;100777.25;;;11.18;100.00
55301;BME280;58302;51.446;-2.000;2023-06-14T06:05:28;100792.81;;;11.28;100.00
55301;BME280;58302;51.446;-2.000;2023-06-14T06:07:54;100793.94;;;11.32;100.00
55301;BME280;58302;51.446;-2.000;2023-06-14T06:10:20;100794.25;;;11.41;100.00
55301;BME280;58302;51.446;-2.000;2023-06-14T06:12:46;100793.00;;;11.58;100.00
55301;BME280;58302;51.446;-2.000;2023-06-14T06:15:13;100795.31;;;11.77;100.00
55301;BME280;58302;51.446;-2.000;2023-06-14T06:17:39;100793.50;;;11.93;100.00
55301;BME280;58302;51.446;-2.000;2023-06-14T06:20:06;100782.91;;;12.06;100.00
55301;BME280;58302;51.446;-2.000;2023-06-14T06:22:34;100791.66;;;12.19;100.00
55301;BME280;58302;51.446;-2.000;2023-06-14T06:25:00;100786.81;;;12.26;100.00
55301;BME280;58302;51.446;-2.000;2023-06-14T06:27:26;100785.47;;;12.33;100.00
55301;BME280;58302;51.446;-2.000;2023-06-14T06:29:52;100774.56;;;12.38;100.00
55301;BME280;58302;51.446;-2.000;2023-06-14T06:32:18;100785.22;;;12.45;100.00
55301;BME280;58302;51.446;-2.000;2023-06-14T06:34:44;100782.53;;;12.60;100.00
55301;BME280;58302;51.446;-2.000;2023-06-14T06:37:10;100784.72;;;12.79;100.00
55301;BME280;58302;51.446;-2.000;2023-06-14T06:39:36;100786.91;;;13.23;100.00
55301;BME280;58302;51.446;-2.000;2023-06-14T06:42:03;100790.72;;;14.22;100.00
55301;BME280;58302;51.446;-2.000;2023-06-14T06:44:29;100785.16;;;15.16;100.00
55301;BME280;58302;51.446;-2.000;2023-06-14T06:46:55;100789.88;;;15.68;100.00
55301;BME280;58302;51.446;-2.000;2023-06-14T06:49:21;100776.16;;;15.92;100.00
55301;BME280;58302;51.446;-2.000;2023-06-14T06:52:06;100782.72;;;15.96;100.00
55301;BME280;58302;51.446;-2.000;2023-06-14T06:54:32;100780.09;;;15.86;100.00
55301;BME280;58302;51.446;-2.000;2023-06-14T06:56:59;100788.00;;;16.30;100.00
55301;BME280;58302;51.446;-2.000;2023-06-14T06:59:25;100782.19;;;16.56;100.00
55301;BME280;58302;51.446;-2.000;2023-06-14T07:01:51;100787.41;;;16.76;100.00
55301;BME280;58302;51.446;-2.000;2023-06-14T07:04:17;100789.59;;;16.93;100.00
55301;BME280;58302;51.446;-2.000;2023-06-14T07:06:43;100789.03;;;17.10;100.00
55301;BME280;58302;51.446;-2.000;2023-06-14T07:09:10;100784.88;;;17.12;100.00
55301;BME280;58302;51.446;-2.000;2023-06-14T07:11:41;100788.31;;;17.04;100.00
55301;BME280;58302;51.446;-2.000;2023-06-14T07:14:07;100791.97;;;17.13;100.00
55301;BME280;58302;51.446;-2.000;2023-06-14T07:16:33;100791.22;;;16.94;100.00
55301;BME280;58302;51.446;-2.000;2023-06-14T07:18:59;100789.22;;;17.00;100.00
55301;BME280;58302;51.446;-2.000;2023-06-14T07:21:26;100790.47;;;17.68;100.00
55301;BME280;58302;51.446;-2.000;2023-06-14T07:23:53;100788.75;;;18.13;100.00
55301;BME280;58302;51.446;-2.000;2023-06-14T07:26:19;100801.25;;;18.33;100.00
55301;BME280;58302;51.446;-2.000;2023-06-14T07:28:46;100801.97;;;18.38;100.00
55301;BME280;58302;51.446;-2.000;2023-06-14T07:31:13;100808.97;;;18.44;100.00
55301;BME280;58302;51.446;-2.000;2023-06-14T07:33:39;100811.69;;;19.17;100.00
55301;BME280;58302;51.446;-2.000;2023-06-14T07:36:05;100802.53;;;19.92;100.00
55301;BME280;58302;51.446;-2.000;2023-06-14T07:38:31;100805.63;;;19.91;100.00
55301;BME280;58302;51.446;-2.000;2023-06-14T07:40:57;100805.09;;;19.80;100.00
55301;BME280;58302;51.446;-2.000;2023-06-14T07:43:23;100817.19;;;20.10;100.00
55301;BME280;58302;51.446;-2.000;2023-06-14T07:45:49;100812.06;;;20.35;100.00
55301;BME280;58302;51.446;-2.000;2023-06-14T07:48:15;100812.16;;;20.61;100.00
55301;BME280;58302;51.446;-2.000;2023-06-14T07:50:41;100812.41;;;20.42;100.00
55301;BME280;58302;51.446;-2.000;2023-06-14T07:53:07;100814.38;;;19.93;100.00
55301;BME280;58302;51.446;-2.000;2023-06-14T07:55:33;100811.69;;;19.62;100.00
55301;BME280;58302;51.446;-2.000;2023-06-14T07:58:08;100822.78;;;19.26;100.00
55301;BME280;58302;51.446;-2.000;2023-06-14T08:00:34;100814.00;;;19.46;100.00
55301;BME280;58302;51.446;-2.000;2023-06-14T08:03:00;100814.97;;;19.50;100.00
55301;BME280;58302;51.446;-2.000;2023-06-14T08:05:27;100799.38;;;20.16;100.00
55301;BME280;58302;51.446;-2.000;2023-06-14T08:07:54;100811.63;;;20.76;100.00
55301;BME280;58302;51.446;-2.000;2023-06-14T08:10:21;100816.81;;;21.29;100.00
55301;BME280;58302;51.446;-2.000;2023-06-14T08:12:47;100817.81;;;21.80;100.00
55301;BME280;58302;51.446;-2.000;2023-06-14T08:15:17;100831.41;;;21.56;100.00
55301;BME280;58302;51.446;-2.000;2023-06-14T08:17:44;100822.06;;;20.88;100.00
55301;BME280;58302;51.446;-2.000;2023-06-14T08:20:11;100815.06;;;20.64;100.00
55301;BME280;58302;51.446;-2.000;2023-06-14T08:22:37;100832.28;;;20.78;100.00
55301;BME280;58302;51.446;-2.000;2023-06-14T08:25:04;100823.69;;;20.89;100.00
55301;BME280;58302;51.446;-2.000;2023-06-14T08:27:30;100830.31;;;21.40;100.00
55301;BME280;58302;51.446;-2.000;2023-06-14T08:29:56;100828.59;;;21.73;100.00
55301;BME280;58302;51.446;-2.000;2023-06-14T08:32:22;100827.91;;;20.95;100.00
55301;BME280;58302;51.446;-2.000;2023-06-14T08:34:48;100833.59;;;21.07;100.00
55301;BME280;58302;51.446;-2.000;2023-06-14T08:37:14;100833.59;;;21.33;100.00
55301;BME280;58302;51.446;-2.000;2023-06-14T08:39:41;100831.88;;;21.67;100.00
55301;BME280;58302;51.446;-2.000;2023-06-14T08:42:07;100828.25;;;21.75;100.00
55301;BME280;58302;51.446;-2.000;2023-06-14T08:44:34;100828.75;;;22.15;100.00
55301;BME280;58302;51.446;-2.000;2023-06-14T08:47:00;100825.09;;;21.94;100.00
55301;BME280;58302;51.446;-2.000;2023-06-14T08:49:26;100824.72;;;21.57;100.00
55301;BME280;58302;51.446;-2.000;2023-06-14T08:51:57;100831.19;;;21.70;100.00
55301;BME280;58302;51.446;-2.000;2023-06-14T08:54:28;100822.44;;;22.35;100.00
55301;BME280;58302;51.446;-2.000;2023-06-14T08:56:58;100821.56;;;22.85;100.00
55301;BME280;58302;51.446;-2.000;2023-06-14T08:59:26;100820.34;;;22.74;100.00
55301;BME280;58302;51.446;-2.000;2023-06-14T09:01:53;100816.81;;;23.28;100.00
55301;BME280;58302;51.446;-2.000;2023-06-14T09:04:23;100821.72;;;23.10;100.00
55301;BME280;58302;51.446;-2.000;2023-06-14T09:06:56;100824.63;;;23.47;100.00
55301;BME280;58302;51.446;-2.000;2023-06-14T09:09:22;100823.31;;;23.77;100.00
55301;BME280;58302;51.446;-2.000;2023-06-14T09:11:52;100818.00;;;23.97;100.00
55301;BME280;58302;51.446;-2.000;2023-06-14T09:14:19;100816.13;;;23.88;100.00
55301;BME280;58302;51.446;-2.000;2023-06-14T09:16:45;100818.44;;;24.48;100.00
55301;BME280;58302;51.446;-2.000;2023-06-14T09:19:24;100817.78;;;24.02;100.00
55301;BME280;58302;51.446;-2.000;2023-06-14T09:21:50;100823.16;;;24.59;100.00
55301;BME280;58302;51.446;-2.000;2023-06-14T09:24:19;100824.69;;;24.57;100.00
55301;BME280;58302;51.446;-2.000;2023-06-14T09:26:48;100823.19;;;24.47;100.00
55301;BME280;58302;51.446;-2.000;2023-06-14T09:29:16;100817.25;;;25.01;100.00
55301;BME280;58302;51.446;-2.000;2023-06-14T09:31:42;100819.81;;;24.94;100.00
55301;BME280;58302;51.446;-2.000;2023-06-14T09:34:08;100821.28;;;25.04;100.00
55301;BME280;58302;51.446;-2.000;2023-06-14T09:36:35;100821.47;;;23.93;100.00
55301;BME280;58302;51.446;-2.000;2023-06-14T09:39:02;100824.69;;;23.83;100.00
55301;BME280;58302;51.446;-2.000;2023-06-14T09:41:36;100817.63;;;24.23;100.00
55301;BME280;58302;51.446;-2.000;2023-06-14T09:44:05;100824.94;;;24.15;100.00
55301;BME280;58302;51.446;-2.000;2023-06-14T09:46:33;100814.22;;;24.66;100.00
55301;BME280;58302;51.446;-2.000;2023-06-14T09:48:59;100824.44;;;24.50;100.00
55301;BME280;58302;51.446;-2.000;2023-06-14T09:51:27;100827.81;;;24.43;100.00
55301;BME280;58302;51.446;-2.000;2023-06-14T09:54:00;100823.25;;;24.75;100.00
55301;BME280;58302;51.446;-2.000;2023-06-14T09:56:28;100830.41;;;23.54;100.00
55301;BME280;58302;51.446;-2.000;2023-06-14T09:58:59;100817.56;;;24.71;100.00
55301;BME280;58302;51.446;-2.000;2023-06-14T10:01:30;100828.25;;;24.69;100.00
55301;BME280;58302;51.446;-2.000;2023-06-14T10:04:03;100827.72;;;24.15;100.00
55301;BME280;58302;51.446;-2.000;2023-06-14T10:06:30;100819.91;;;24.69;100.00
55301;BME280;58302;51.446;-2.000;2023-06-14T10:08:58;100819.53;;;24.71;100.00
55301;BME280;58302;51.446;-2.000;2023-06-14T10:11:27;100810.97;;;25.16;100.00
55301;BME280;58302;51.446;-2.000;2023-06-14T10:13:57;100816.84;;;25.15;100.00
55301;BME280;58302;51.446;-2.000;2023-06-14T10:24:28;100812.19;;;27.00;100.00
55301;BME280;58302;51.446;-2.000;2023-06-14T10:26:57;100816.91;;;26.41;100.00
55301;BME280;58302;51.446;-2.000;2023-06-14T10:29:23;100805.44;;;26.62;100.00
55301;BME280;58302;51.446;-2.000;2023-06-14T10:31:50;100815.47;;;26.32;100.00
55301;BME280;58302;51.446;-2.000;2023-06-14T10:37:13;100813.25;;;26.21;100.00
55301;BME280;58302;51.446;-2.000;2023-06-14T10:39:41;100811.94;;;26.50;100.00
55301;BME280;58302;51.446;-2.000;2023-06-14T10:42:08;100810.00;;;26.70;100.00
55301;BME280;58302;51.446;-2.000;2023-06-14T10:44:55;100810.56;;;26.60;100.00
55301;BME280;58302;51.446;-2.000;2023-06-14T10:50:08;100811.06;;;27.43;100.00
55301;BME280;58302;51.446;-2.000;2023-06-14T10:52:41;100809.06;;;27.44;100.00
55301;BME280;58302;51.446;-2.000;2023-06-14T10:55:17;100804.09;;;27.34;100.00
55301;BME280;58302;51.446;-2.000;2023-06-14T10:57:48;100795.00;;;26.78;100.00
55301;BME280;58302;51.446;-2.000;2023-06-14T11:00:19;100797.13;;;25.95;100.00
55301;BME280;58302;51.446;-2.000;2023-06-14T11:05:29;100792.44;;;26.50;100.00
55301;BME280;58302;51.446;-2.000;2023-06-14T11:08:18;100782.81;;;26.48;100.00
55301;BME280;58302;51.446;-2.000;2023-06-14T11:10:48;100786.34;;;26.45;100.00
55301;BME280;58302;51.446;-2.000;2023-06-14T11:13:16;100789.66;;;26.70;100.00
55301;BME280;58302;51.446;-2.000;2023-06-14T11:15:47;100785.97;;;27.04;100.00
55301;BME280;58302;51.446;-2.000;2023-06-14T11:18:13;100782.53;;;27.76;100.00
55301;BME280;58302;51.446;-2.000;2023-06-14T11:20:40;100793.81;;;28.33;98.73
55301;BME280;58302;51.446;-2.000;2023-06-14T11:23:06;100790.13;;;28.29;100.00
55301;BME280;58302;51.446;-2.000;2023-06-14T11:25:33;100766.00;;;29.07;94.79
55301;BME280;58302;51.446;-2.000;2023-06-14T11:28:20;100777.63;;;28.19;100.00
55301;BME280;58302;51.446;-2.000;2023-06-14T11:30:59;100771.41;;;28.59;100.00
55301;BME280;58302;51.446;-2.000;2023-06-14T11:33:25;100768.13;;;28.87;99.66
55301;BME280;58302;51.446;-2.000;2023-06-14T11:35:52;100764.81;;;29.08;99.70
55301;BME280;58302;51.446;-2.000;2023-06-14T11:38:23;100758.34;;;29.04;97.15
55301;BME280;58302;51.446;-2.000;2023-06-14T11:40:49;100767.44;;;28.94;96.43
55301;BME280;58302;51.446;-2.000;2023-06-14T11:43:15;100763.59;;;28.76;100.00
55301;BME280;58302;51.446;-2.000;2023-06-14T11:45:40;100762.25;;;29.33;100.00
55301;BME280;58302;51.446;-2.000;2023-06-14T11:48:09;100752.59;;;28.90;100.00
55301;BME280;58302;51.446;-2.000;2023-06-14T11:50:37;100751.91;;;29.00;100.00
55301;BME280;58302;51.446;-2.000;2023-06-14T11:53:04;100747.00;;;29.72;100.00
55301;BME280;58302;51.446;-2.000;2023-06-14T11:55:39;100758.25;;;29.75;99.30
55301;BME280;58302;51.446;-2.000;2023-06-14T11:58:07;100756.41;;;29.97;95.61
55301;BME280;58302;51.446;-2.000;2023-06-14T12:00:35;100751.03;;;30.36;96.23
55301;BME280;58302;51.446;-2.000;2023-06-14T12:03:02;100747.22;;;30.69;90.34
55301;BME280;58302;51.446;-2.000;2023-06-14T12:05:33;100748.59;;;30.24;89.77
55301;BME280;58302;51.446;-2.000;2023-06-14T12:08:01;100746.75;;;29.91;96.78
55301;BME280;58302;51.446;-2.000;2023-06-14T12:10:28;100741.47;;;30.48;94.66
55301;BME280;58302;51.446;-2.000;2023-06-14T12:12:58;100746.13;;;31.17;88.16
55301;BME280;58302;51.446;-2.000;2023-06-14T12:15:28;100750.13;;;31.19;84.86
55301;BME280;58302;51.446;-2.000;2023-06-14T12:17:55;100737.78;;;31.49;79.42
55301;BME280;58302;51.446;-2.000;2023-06-14T12:20:21;100744.97;;;31.96;81.30
55301;BME280;58302;51.446;-2.000;2023-06-14T12:22:55;100734.03;;;32.41;80.05
55301;BME280;58302;51.446;-2.000;2023-06-14T12:25:35;100743.22;;;32.56;76.71
55301;BME280;58302;51.446;-2.000;2023-06-14T12:28:09;100746.13;;;32.17;78.29
55301;BME280;58302;51.446;-2.000;2023-06-14T12:30:35;100746.59;;;32.05;82.30
55301;BME280;58302;51.446;-2.000;2023-06-14T12:33:02;100743.41;;;31.88;78.97
55301;BME280;58302;51.446;-2.000;2023-06-14T12:35:29;100753.84;;;31.84;83.63
55301;BME280;58302;51.446;-2.000;2023-06-14T12:37:54;100740.59;;;31.70;83.68
55301;BME280;58302;51.446;-2.000;2023-06-14T12:40:22;100743.78;;;31.94;86.25
55301;BME280;58302;51.446;-2.000;2023-06-14T12:42:48;100744.47;;;32.41;81.83
55301;BME280;58302;51.446;-2.000;2023-06-14T12:45:15;100728.28;;;32.66;79.26
55301;BME280;58302;51.446;-2.000;2023-06-14T12:47:41;100728.63;;;32.83;83.12
55301;BME280;58302;51.446;-2.000;2023-06-14T12:50:08;100736.63;;;32.84;86.14
55301;BME280;58302;51.446;-2.000;2023-06-14T12:52:36;100746.16;;;33.12;81.76